Time,TemperatureF,DewpointF,PressureIn,WindDirection,WindDirectionDegrees,WindSpeedMPH,WindSpeedGustMPH,Humidity,HourlyPrecipIn,Conditions,Clouds,dailyrainin,SoftwareType,DateUTC
2013-01-05 00:00:00,8.4,6.1,30.27,ENE,72,0.0,0.0,90,0.00,,,0.00,Wunderground v.1.15,2013-01-05 06:00:00,
2013-01-05 00:10:00,7.5,4.9,30.27,ENE,72,0.0,0.0,89,0.00,,,0.00,Wunderground v.1.15,2013-01-05 06:10:00,
2013-01-05 00:20:00,6.5,3.7,30.26,ENE,72,0.0,0.0,88,0.00,,,0.00,Wunderground v.1.15,2013-01-05 06:20:00,
2013-01-05 00:30:00,6.3,3.8,30.26,North,4,0.0,0.0,89,0.00,,,0.00,Wunderground v.1.15,2013-01-05 06:30:00,
2013-01-05 00:40:00,5.2,2.2,30.26,North,4,0.0,0.0,87,0.00,,,0.00,Wunderground v.1.15,2013-01-05 06:40:00,
2013-01-05 00:50:00,4.8,2.0,30.26,North,4,0.0,0.0,88,0.00,,,0.00,Wunderground v.1.15,2013-01-05 06:50:00,
2013-01-05 01:00:00,5.2,2.7,30.26,NNE,27,0.0,0.0,89,0.00,,,0.00,Wunderground v.1.15,2013-01-05 07:00:00,
2013-01-05 01:10:00,4.8,2.0,30.26,NNE,27,0.0,0.0,88,0.00,,,0.00,Wunderground v.1.15,2013-01-05 07:10:00,
2013-01-05 01:20:00,3.8,0.8,30.25,NNE,27,0.0,0.0,87,0.00,,,0.00,Wunderground v.1.15,2013-01-05 07:20:00,
2013-01-05 01:30:00,4.8,2.3,30.25,NNE,27,0.0,0.0,89,0.00,,,0.00,Wunderground v.1.15,2013-01-05 07:30:00,
2013-01-05 01:40:00,5.0,2.2,30.25,SE,142,0.0,0.0,88,0.00,,,0.00,Wunderground v.1.15,2013-01-05 07:40:00,
2013-01-05 01:50:00,4.5,1.7,30.24,SE,142,0.0,0.0,88,0.00,,,0.00,Wunderground v.1.15,2013-01-05 07:50:00,
2013-01-05 02:00:00,3.7,0.7,30.24,SE,143,0.0,0.0,87,0.00,,,0.00,Wunderground v.1.15,2013-01-05 08:00:00,
2013-01-05 02:10:00,3.7,0.9,30.25,SE,142,0.0,0.0,88,0.00,,,0.00,Wunderground v.1.15,2013-01-05 08:10:00,
2013-01-05 02:20:00,3.4,0.6,30.25,SE,142,0.0,0.0,88,0.00,,,0.00,Wunderground v.1.15,2013-01-05 08:20:00,
2013-01-05 02:30:00,3.4,0.6,30.25,SE,142,0.0,0.0,88,0.00,,,0.00,Wunderground v.1.15,2013-01-05 08:30:00,
2013-01-05 02:40:00,3.2,0.4,30.25,SE,143,0.0,0.0,88,0.00,,,0.00,Wunderground v.1.15,2013-01-05 08:40:00,
2013-01-05 02:50:00,2.7,-0.3,30.25,SE,142,0.0,0.0,87,0.00,,,0.00,Wunderground v.1.15,2013-01-05 08:50:00,
2013-01-05 03:00:00,2.7,-0.3,30.25,SSE,155,0.0,0.0,87,0.00,,,0.00,Wunderground v.1.15,2013-01-05 09:00:00,
2013-01-05 03:10:00,3.3,0.8,30.25,North,350,0.0,0.0,89,0.00,,,0.00,Wunderground v.1.15,2013-01-05 09:10:00,
2013-01-05 03:20:00,4.9,2.6,30.25,NNW,340,0.0,0.0,90,0.00,,,0.00,Wunderground v.1.15,2013-01-05 09:20:00,
2013-01-05 03:30:00,5.4,2.9,30.24,NNW,340,0.0,0.0,89,0.00,,,0.00,Wunderground v.1.15,2013-01-05 09:30:00,
2013-01-05 03:40:00,5.6,3.1,30.23,NNW,340,0.0,0.0,89,0.00,,,0.00,Wunderground v.1.15,2013-01-05 09:40:00,
2013-01-05 03:50:00,5.1,2.3,30.23,NNW,340,0.0,0.0,88,0.00,,,0.00,Wunderground v.1.15,2013-01-05 09:50:00,
2013-01-05 04:00:00,4.7,1.7,30.24,WNW,295,1.0,1.0,87,0.00,,,0.00,Wunderground v.1.15,2013-01-05 10:00:00,
2013-01-05 04:10:00,4.6,1.6,30.23,WNW,282,0.0,1.0,87,0.00,,,0.00,Wunderground v.1.15,2013-01-05 10:10:00,
2013-01-05 04:20:00,4.2,1.2,30.23,West,280,0.0,0.0,87,0.00,,,0.00,Wunderground v.1.15,2013-01-05 10:20:00,
2013-01-05 04:30:00,4.0,1.2,30.23,SSE,148,0.0,0.0,88,0.00,,,0.00,Wunderground v.1.15,2013-01-05 10:30:00,
2013-01-05 04:40:00,3.7,0.7,30.22,SSE,148,0.0,0.0,87,0.00,,,0.00,Wunderground v.1.15,2013-01-05 10:40:00,
2013-01-05 04:50:00,3.3,0.3,30.22,SSE,148,0.0,0.0,87,0.00,,,0.00,Wunderground v.1.15,2013-01-05 10:50:00,
2013-01-05 05:00:00,3.5,0.7,30.22,SSE,148,0.0,0.0,88,0.00,,,0.00,Wunderground v.1.15,2013-01-05 11:00:00,
2013-01-05 05:10:00,3.2,0.2,30.21,SSE,148,0.0,0.0,87,0.00,,,0.00,Wunderground v.1.15,2013-01-05 11:10:00,
2013-01-05 05:20:00,3.2,0.4,30.21,SSE,148,0.0,0.0,88,0.00,,,0.00,Wunderground v.1.15,2013-01-05 11:20:00,
2013-01-05 05:30:00,2.8,-0.2,30.20,SSE,148,0.0,0.0,87,0.00,,,0.00,Wunderground v.1.15,2013-01-05 11:30:00,
2013-01-05 05:40:00,3.0,0.3,30.20,SE,129,0.0,0.0,88,0.00,,,0.00,Wunderground v.1.15,2013-01-05 11:40:00,
2013-01-05 05:50:00,2.9,-0.1,30.20,WNW,288,1.0,1.0,87,0.00,,,0.00,Wunderground v.1.15,2013-01-05 11:50:00,
2013-01-05 06:00:00,2.9,-0.1,30.20,WNW,288,0.0,0.0,87,0.00,,,0.00,Wunderground v.1.15,2013-01-05 12:00:00,
2013-01-05 06:10:00,3.2,0.4,30.20,WNW,287,1.0,2.0,88,0.00,,,0.00,Wunderground v.1.15,2013-01-05 12:10:00,
2013-01-05 06:20:00,3.2,0.4,30.21,West,281,1.0,1.0,88,0.00,,,0.00,Wunderground v.1.15,2013-01-05 12:20:00,
2013-01-05 06:30:00,3.0,0.0,30.21,West,270,1.0,1.0,87,0.00,,,0.00,Wunderground v.1.15,2013-01-05 12:30:00,
2013-01-05 06:40:00,3.2,0.4,30.21,SSE,152,1.0,1.0,88,0.00,,,0.00,Wunderground v.1.15,2013-01-05 12:40:00,
2013-01-05 06:50:00,3.0,0.3,30.21,West,278,1.0,1.0,88,0.00,,,0.00,Wunderground v.1.15,2013-01-05 12:50:00,
2013-01-05 07:00:00,2.5,-0.5,30.21,WNW,285,1.0,1.0,87,0.00,,,0.00,Wunderground v.1.15,2013-01-05 13:00:00,
2013-01-05 07:10:00,2.5,-0.2,30.21,WNW,285,0.0,0.0,88,0.00,,,0.00,Wunderground v.1.15,2013-01-05 13:10:00,
2013-01-05 07:20:00,2.7,0.0,30.21,West,271,1.0,1.0,88,0.00,,,0.00,Wunderground v.1.15,2013-01-05 13:20:00,
2013-01-05 07:30:00,2.9,0.2,30.22,West,260,1.0,1.0,88,0.00,,,0.00,Wunderground v.1.15,2013-01-05 13:30:00,
2013-01-05 07:40:00,3.1,0.3,30.21,West,273,0.0,0.0,88,0.00,,,0.00,Wunderground v.1.15,2013-01-05 13:40:00,
2013-01-05 07:50:00,3.6,1.1,30.22,West,271,1.0,1.0,89,0.00,,,0.00,Wunderground v.1.15,2013-01-05 13:50:00,
2013-01-05 08:00:00,3.9,1.4,30.22,SE,126,0.0,0.0,89,0.00,,,0.00,Wunderground v.1.15,2013-01-05 14:00:00,
2013-01-05 08:10:00,4.1,1.6,30.21,SE,125,0.0,0.0,89,0.00,,,0.00,Wunderground v.1.15,2013-01-05 14:10:00,
2013-01-05 08:20:00,4.7,2.2,30.20,ESE,109,0.0,0.0,89,0.00,,,0.00,Wunderground v.1.15,2013-01-05 14:20:00,
2013-01-05 08:30:00,5.4,2.9,30.21,ESE,108,0.0,0.0,89,0.00,,,0.00,Wunderground v.1.15,2013-01-05 14:30:00,
2013-01-05 08:40:00,5.6,3.1,30.22,NNW,328,0.0,0.0,89,0.00,,,0.00,Wunderground v.1.15,2013-01-05 14:40:00,
2013-01-05 08:50:00,6.2,3.7,30.22,NNW,327,0.0,0.0,89,0.00,,,0.00,Wunderground v.1.15,2013-01-05 14:50:00,
2013-01-05 09:00:00,5.6,2.8,30.23,West,281,1.0,1.0,88,0.00,,,0.00,Wunderground v.1.15,2013-01-05 15:00:00,
2013-01-05 09:10:00,5.9,3.4,30.25,WNW,287,2.0,2.0,89,0.00,,,0.00,Wunderground v.1.15,2013-01-05 15:10:00,
2013-01-05 09:20:00,7.6,5.5,30.24,West,274,1.0,1.0,91,0.00,,,0.00,Wunderground v.1.15,2013-01-05 15:20:00,
2013-01-05 09:30:00,8.4,6.1,30.25,West,276,3.0,3.0,90,0.00,,,0.00,Wunderground v.1.15,2013-01-05 15:30:00,
2013-01-05 09:40:00,10.0,7.7,30.25,WNW,289,2.0,2.0,90,0.00,,,0.00,Wunderground v.1.15,2013-01-05 15:40:00,
2013-01-05 09:50:00,12.2,10.1,30.25,West,279,1.0,3.0,91,0.00,,,0.00,Wunderground v.1.15,2013-01-05 15:50:00,
2013-01-05 10:00:00,13.1,10.7,30.26,WNW,288,3.0,3.0,90,0.00,,,0.00,Wunderground v.1.15,2013-01-05 16:00:00,
2013-01-05 10:10:00,13.9,11.5,30.26,WNW,290,2.0,2.0,90,0.00,,,0.00,Wunderground v.1.15,2013-01-05 16:10:00,
2013-01-05 10:20:00,15.4,13.2,30.25,WSW,245,1.0,1.0,91,0.00,,,0.00,Wunderground v.1.15,2013-01-05 16:20:00,
2013-01-05 10:30:00,16.6,13.9,30.25,WSW,252,1.0,1.0,89,0.00,,,0.00,Wunderground v.1.15,2013-01-05 16:30:00,
2013-01-05 10:40:00,17.3,14.6,30.26,West,278,1.0,1.0,89,0.00,,,0.00,Wunderground v.1.15,2013-01-05 16:40:00,
2013-01-05 10:50:00,16.8,13.3,30.26,WNW,282,3.0,3.0,86,0.00,,,0.00,Wunderground v.1.15,2013-01-05 16:50:00,
2013-01-05 11:00:00,17.7,12.9,30.25,WNW,288,4.0,4.0,81,0.00,,,0.00,Wunderground v.1.15,2013-01-05 17:00:00,
2013-01-05 11:10:00,18.1,12.4,30.25,WNW,287,5.0,6.0,78,0.00,,,0.00,Wunderground v.1.15,2013-01-05 17:10:00,
2013-01-05 11:20:00,18.9,12.9,30.25,WNW,288,5.0,5.0,77,0.00,,,0.00,Wunderground v.1.15,2013-01-05 17:20:00,
2013-01-05 11:30:00,19.1,12.8,30.26,WNW,282,7.0,8.0,76,0.00,,,0.00,Wunderground v.1.15,2013-01-05 17:30:00,
2013-01-05 11:40:00,19.8,12.8,30.24,WNW,291,5.0,5.0,74,0.00,,,0.00,Wunderground v.1.15,2013-01-05 17:40:00,
2013-01-05 11:50:00,20.5,13.5,30.25,West,269,5.0,6.0,74,0.00,,,0.00,Wunderground v.1.15,2013-01-05 17:50:00,
2013-01-05 12:00:00,20.6,13.3,30.25,WNW,289,8.0,10.0,73,0.00,,,0.00,Wunderground v.1.15,2013-01-05 18:00:00,
2013-01-05 12:10:00,20.8,13.2,30.24,WNW,290,7.0,7.0,72,0.00,,,0.00,Wunderground v.1.15,2013-01-05 18:10:00,
2013-01-05 12:20:00,21.3,13.7,30.24,West,271,6.0,6.0,72,0.00,,,0.00,Wunderground v.1.15,2013-01-05 18:20:00,
2013-01-05 12:30:00,21.9,13.9,30.24,NW,304,5.0,8.0,71,0.00,,,0.00,Wunderground v.1.15,2013-01-05 18:30:00,
2013-01-05 12:40:00,22.1,13.8,30.23,WNW,302,6.0,6.0,70,0.00,,,0.00,Wunderground v.1.15,2013-01-05 18:40:00,
2013-01-05 12:50:00,22.7,14.7,30.24,West,263,7.0,7.0,71,0.00,,,0.00,Wunderground v.1.15,2013-01-05 18:50:00,
2013-01-05 13:00:00,23.4,15.1,30.24,WNW,287,6.0,6.0,70,0.00,,,0.00,Wunderground v.1.15,2013-01-05 19:00:00,
2013-01-05 13:10:00,24.3,15.9,30.23,WNW,289,6.0,6.0,70,0.00,,,0.00,Wunderground v.1.15,2013-01-05 19:10:00,
2013-01-05 13:20:00,25.1,16.4,30.23,WNW,290,6.0,6.0,69,0.00,,,0.00,Wunderground v.1.15,2013-01-05 19:20:00,
2013-01-05 13:30:00,25.9,16.8,30.24,West,277,6.0,6.0,68,0.00,,,0.00,Wunderground v.1.15,2013-01-05 19:30:00,
2013-01-05 13:40:00,26.9,17.7,30.23,WNW,292,5.0,5.0,68,0.00,,,0.00,Wunderground v.1.15,2013-01-05 19:40:00,
2013-01-05 13:50:00,27.7,18.2,30.23,WNW,290,5.0,5.0,67,0.00,,,0.00,Wunderground v.1.15,2013-01-05 19:50:00,
2013-01-05 14:00:00,28.9,19.0,30.23,WNW,294,3.0,5.0,66,0.00,,,0.00,Wunderground v.1.15,2013-01-05 20:00:00,
2013-01-05 14:10:00,29.9,19.6,30.23,WNW,285,4.0,4.0,65,0.00,,,0.00,Wunderground v.1.15,2013-01-05 20:10:00,
2013-01-05 14:20:00,30.9,20.9,30.23,WSW,257,4.0,4.0,66,0.00,,,0.00,Wunderground v.1.15,2013-01-05 20:20:00,
2013-01-05 14:30:00,32.2,21.7,30.24,WNW,294,3.0,3.0,65,0.00,,,0.00,Wunderground v.1.15,2013-01-05 20:30:00,
2013-01-05 14:40:00,33.0,22.9,30.24,WNW,290,4.0,6.0,66,0.00,,,0.00,Wunderground v.1.15,2013-01-05 20:40:00,
2013-01-05 14:50:00,34.0,23.5,30.24,WNW,284,4.0,4.0,65,0.00,,,0.00,Wunderground v.1.15,2013-01-05 20:50:00,
2013-01-05 15:00:00,34.8,24.2,30.24,WNW,295,5.0,7.0,65,0.00,,,0.00,Wunderground v.1.15,2013-01-05 21:00:00,
2013-01-05 15:10:00,35.4,24.8,30.24,WNW,295,6.0,6.0,65,0.00,,,0.00,Wunderground v.1.15,2013-01-05 21:10:00,
2013-01-05 15:20:00,35.6,25.4,30.25,WNW,290,5.0,7.0,66,0.00,,,0.00,Wunderground v.1.15,2013-01-05 21:20:00,
2013-01-05 15:30:00,36.0,25.7,30.25,WNW,284,7.0,9.0,66,0.00,,,0.00,Wunderground v.1.15,2013-01-05 21:30:00,
2013-01-05 15:40:00,36.5,25.8,30.26,West,273,6.0,8.0,65,0.00,,,0.00,Wunderground v.1.15,2013-01-05 21:40:00,
2013-01-05 15:50:00,36.6,25.9,30.26,WNW,297,5.0,5.0,65,0.00,,,0.00,Wunderground v.1.15,2013-01-05 21:50:00,
2013-01-05 16:00:00,36.8,26.1,30.26,West,276,3.0,3.0,65,0.00,,,0.00,Wunderground v.1.15,2013-01-05 22:00:00,
2013-01-05 16:10:00,37.1,26.0,30.27,WNW,288,3.0,3.0,64,0.00,,,0.00,Wunderground v.1.15,2013-01-05 22:10:00,
2013-01-05 16:20:00,37.5,26.4,30.26,WSW,245,2.0,3.0,64,0.00,,,0.00,Wunderground v.1.15,2013-01-05 22:20:00,
2013-01-05 16:30:00,37.1,26.0,30.27,WSW,255,2.0,2.0,64,0.00,,,0.00,Wunderground v.1.15,2013-01-05 22:30:00,
2013-01-05 16:40:00,36.6,25.9,30.27,WSW,242,2.0,3.0,65,0.00,,,0.00,Wunderground v.1.15,2013-01-05 22:40:00,
2013-01-05 16:50:00,35.1,25.2,30.27,West,272,1.0,1.0,67,0.00,,,0.01,Wunderground v.1.15,2013-01-05 22:50:00,
2013-01-05 17:00:00,33.9,25.1,30.28,WNW,287,2.0,2.0,70,0.00,,,0.01,Wunderground v.1.15,2013-01-05 23:00:00,
2013-01-05 17:10:00,33.1,24.7,30.28,West,280,1.0,2.0,71,0.00,,,0.01,Wunderground v.1.15,2013-01-05 23:10:00,
2013-01-05 17:20:00,31.6,23.9,30.28,WNW,295,3.0,4.0,73,0.00,,,0.01,Wunderground v.1.15,2013-01-05 23:20:00,
2013-01-05 17:30:00,32.7,25.0,30.28,WNW,282,5.0,5.0,73,0.00,,,0.01,Wunderground v.1.15,2013-01-05 23:30:00,
2013-01-05 17:40:00,33.3,25.2,30.28,WNW,297,5.0,5.0,72,0.00,,,0.01,Wunderground v.1.15,2013-01-05 23:40:00,
2013-01-05 17:50:00,34.0,25.6,30.28,WNW,285,6.0,6.0,71,0.00,,,0.01,Wunderground v.1.15,2013-01-05 23:50:00,
2013-01-05 18:00:00,34.1,25.7,30.29,West,273,7.0,8.0,71,0.00,,,0.01,Wunderground v.1.15,2013-01-06 00:00:00,
2013-01-05 18:10:00,34.0,25.6,30.30,West,279,8.0,8.0,71,0.00,,,0.01,Wunderground v.1.15,2013-01-06 00:10:00,
2013-01-05 18:20:00,33.5,25.1,30.30,West,266,8.0,8.0,71,0.00,,,0.01,Wunderground v.1.15,2013-01-06 00:20:00,
2013-01-05 18:30:00,33.1,25.1,30.30,West,274,8.0,8.0,72,0.00,,,0.01,Wunderground v.1.15,2013-01-06 00:30:00,
2013-01-05 18:40:00,32.9,24.9,30.31,WNW,283,7.0,7.0,72,0.00,,,0.01,Wunderground v.1.15,2013-01-06 00:40:00,
2013-01-05 18:50:00,32.5,24.8,30.31,WNW,293,7.0,7.0,73,0.00,,,0.01,Wunderground v.1.15,2013-01-06 00:50:00,
2013-01-05 19:00:00,32.2,24.5,30.31,WNW,284,6.0,6.0,73,0.00,,,0.01,Wunderground v.1.15,2013-01-06 01:00:00,
2013-01-05 19:10:00,31.7,24.4,30.32,WNW,297,6.0,9.0,74,0.00,,,0.01,Wunderground v.1.15,2013-01-06 01:10:00,
2013-01-05 19:20:00,31.3,24.3,30.32,WNW,295,7.0,7.0,75,0.00,,,0.01,Wunderground v.1.15,2013-01-06 01:20:00,
2013-01-05 19:30:00,31.2,24.2,30.32,WNW,296,6.0,8.0,75,0.00,,,0.01,Wunderground v.1.15,2013-01-06 01:30:00,
2013-01-05 19:40:00,31.0,24.3,30.33,WNW,291,7.0,7.0,76,0.00,,,0.01,Wunderground v.1.15,2013-01-06 01:40:00,
2013-01-05 19:50:00,31.5,24.5,30.33,WNW,293,9.0,10.0,75,0.00,,,0.01,Wunderground v.1.15,2013-01-06 01:50:00,
2013-01-05 20:00:00,30.6,23.9,30.34,NW,306,8.0,8.0,76,0.00,,,0.01,Wunderground v.1.15,2013-01-06 02:00:00,
2013-01-05 20:10:00,30.2,23.9,30.34,WNW,291,7.0,7.0,77,0.00,,,0.01,Wunderground v.1.15,2013-01-06 02:10:00,
2013-01-05 20:20:00,30.2,23.9,30.34,WNW,295,7.0,7.0,77,0.00,,,0.01,Wunderground v.1.15,2013-01-06 02:20:00,
2013-01-05 20:30:00,29.1,23.1,30.35,WNW,287,5.0,5.0,78,0.00,,,0.01,Wunderground v.1.15,2013-01-06 02:30:00,
2013-01-05 20:40:00,29.1,23.4,30.35,WNW,301,6.0,8.0,79,0.00,,,0.01,Wunderground v.1.15,2013-01-06 02:40:00,
2013-01-05 20:50:00,29.2,22.9,30.35,WNW,297,7.0,7.0,77,0.00,,,0.01,Wunderground v.1.15,2013-01-06 02:50:00,
2013-01-05 21:00:00,29.0,23.0,30.35,WNW,293,6.0,7.0,78,0.00,,,0.01,Wunderground v.1.15,2013-01-06 03:00:00,
2013-01-05 21:10:00,28.2,22.5,30.36,WNW,299,6.0,7.0,79,0.00,,,0.01,Wunderground v.1.15,2013-01-06 03:10:00,
2013-01-05 21:20:00,28.1,22.7,30.36,WNW,298,6.0,7.0,80,0.00,,,0.01,Wunderground v.1.15,2013-01-06 03:20:00,
2013-01-05 21:30:00,28.8,22.8,30.36,WNW,297,7.0,7.0,78,0.00,,,0.01,Wunderground v.1.15,2013-01-06 03:30:00,
2013-01-05 21:40:00,28.0,22.3,30.36,WNW,298,6.0,6.0,79,0.00,,,0.01,Wunderground v.1.15,2013-01-06 03:40:00,
2013-01-05 21:50:00,27.6,22.2,30.37,WNW,295,5.0,5.0,80,0.00,,,0.01,Wunderground v.1.15,2013-01-06 03:50:00,
2013-01-05 22:00:00,26.1,21.1,30.37,WNW,294,5.0,6.0,81,0.00,,,0.01,Wunderground v.1.15,2013-01-06 04:00:00,
2013-01-05 22:10:00,26.1,21.4,30.37,WNW,293,5.0,5.0,82,0.00,,,0.01,Wunderground v.1.15,2013-01-06 04:10:00,
2013-01-05 22:20:00,25.2,20.5,30.37,WNW,297,4.0,4.0,82,0.00,,,0.01,Wunderground v.1.15,2013-01-06 04:20:00,
2013-01-05 22:30:00,24.7,20.3,30.38,WNW,300,3.0,4.0,83,0.00,,,0.01,Wunderground v.1.15,2013-01-06 04:30:00,
2013-01-05 22:40:00,24.3,19.9,30.38,NW,319,2.0,2.0,83,0.00,,,0.01,Wunderground v.1.15,2013-01-06 04:40:00,
2013-01-05 22:50:00,23.5,19.1,30.38,NW,306,3.0,3.0,83,0.00,,,0.01,Wunderground v.1.15,2013-01-06 04:50:00,
2013-01-05 23:00:00,24.7,20.3,30.38,WNW,290,5.0,5.0,83,0.00,,,0.01,Wunderground v.1.15,2013-01-06 05:00:00,
2013-01-05 23:10:00,23.9,19.2,30.39,WNW,293,4.0,4.0,82,0.00,,,0.01,Wunderground v.1.15,2013-01-06 05:10:00,
2013-01-05 23:20:00,22.3,17.9,30.39,WNW,287,3.0,3.0,83,0.00,,,0.01,Wunderground v.1.15,2013-01-06 05:20:00,
2013-01-05 23:30:00,21.9,18.1,30.39,WNW,290,3.0,4.0,85,0.00,,,0.01,Wunderground v.1.15,2013-01-06 05:30:00,
2013-01-05 23:40:00,21.9,18.1,30.39,WNW,290,4.0,4.0,85,0.00,,,0.01,Wunderground v.1.15,2013-01-06 05:40:00,
2013-01-05 23:50:00,21.8,17.7,30.39,WNW,303,3.0,3.0,84,0.00,,,0.01,Wunderground v.1.15,2013-01-06 05:50:00,